createdAt,value
2022-08-19T00:00:15.087Z,26.24
2022-08-19T00:05:17.111Z,26.23
2022-08-19T00:10:20.634Z,26.21
2022-08-19T00:15:23.551Z,26.13
2022-08-19T00:20:25.219Z,26.05
2022-08-19T00:25:30.350Z,25.92
2022-08-19T00:30:32.446Z,25.86
2022-08-19T00:35:34.617Z,25.77
2022-08-19T00:40:36.280Z,25.67
2022-08-19T00:45:37.983Z,25.61
2022-08-19T00:50:52.062Z,25.59
2022-08-19T00:55:57.686Z,25.62
2022-08-19T01:00:59.563Z,25.62
2022-08-19T01:06:01.404Z,25.28
2022-08-19T01:11:03.640Z,25.13
2022-08-19T01:16:13.502Z,25.11
2022-08-19T01:21:30.867Z,25.09
2022-08-19T01:26:32.476Z,25.13
2022-08-19T01:31:34.666Z,25.08
2022-08-19T01:36:42.924Z,25.06
2022-08-19T01:41:44.728Z,24.93
2022-08-19T01:46:48.857Z,24.94
2022-08-19T01:51:50.725Z,24.89
2022-08-19T01:56:56.097Z,24.91
2022-08-19T02:01:57.760Z,24.81
2022-08-19T02:06:59.336Z,24.73
2022-08-19T02:12:01.715Z,24.68
2022-08-19T02:17:03.921Z,24.61
2022-08-19T02:22:05.893Z,24.60
2022-08-19T02:27:07.667Z,24.53
2022-08-19T02:32:09.275Z,24.46
2022-08-19T02:37:30.919Z,24.42
2022-08-19T02:42:37.014Z,24.35
2022-08-19T02:47:38.748Z,24.30
2022-08-19T02:52:40.351Z,24.19
2022-08-19T02:57:43.028Z,24.15
2022-08-19T03:02:44.710Z,24.11
2022-08-19T03:07:47.566Z,24.04
2022-08-19T03:12:49.254Z,24.03
2022-08-19T03:17:51.022Z,23.95
2022-08-19T03:22:52.686Z,23.92
2022-08-19T03:27:54.373Z,23.83
2022-08-19T03:32:57.048Z,23.86
2022-08-19T03:38:01.842Z,23.81
2022-08-19T03:43:03.893Z,23.75
2022-08-19T03:48:05.636Z,23.76
2022-08-19T03:53:08.377Z,23.79
2022-08-19T03:58:12.059Z,23.74
2022-08-19T04:03:13.671Z,23.68
2022-08-19T04:08:19.134Z,23.63
2022-08-19T04:13:20.774Z,23.62
2022-08-19T04:18:22.343Z,23.69
2022-08-19T04:23:24.766Z,23.76
2022-08-19T04:28:27.100Z,23.87
2022-08-19T04:33:29.643Z,23.85
2022-08-19T04:38:31.302Z,23.82
2022-08-19T04:43:33.808Z,23.93
2022-08-19T04:48:36.568Z,23.94
2022-08-19T04:53:47.048Z,23.97
2022-08-19T04:58:49.489Z,24.05
2022-08-19T05:03:51.520Z,24.11
2022-08-19T05:08:53.181Z,24.14
2022-08-19T05:13:55.752Z,24.27
2022-08-19T05:19:16.031Z,24.27
2022-08-19T05:24:18.261Z,24.39
2022-08-19T05:29:22.398Z,24.51
2022-08-19T05:34:27.009Z,24.64
2022-08-19T05:39:31.712Z,24.68
2022-08-19T05:44:37.375Z,24.79
2022-08-19T05:49:39.391Z,24.98
2022-08-19T05:54:42.584Z,25.04
2022-08-19T05:59:46.796Z,25.14
2022-08-19T06:04:48.389Z,25.20
2022-08-19T06:09:59.811Z,25.16
2022-08-19T06:15:06.913Z,25.30
2022-08-19T06:20:12.981Z,25.41
2022-08-19T06:25:15.715Z,25.61
2022-08-19T06:30:17.580Z,25.73
2022-08-19T06:35:19.464Z,25.84
2022-08-19T06:40:21.209Z,26.09
2022-08-19T06:45:34.405Z,26.18
2022-08-19T06:50:39.396Z,26.26
2022-08-19T06:55:42.147Z,26.39
2022-08-19T07:00:43.834Z,26.67
2022-08-19T07:05:46.258Z,26.72
2022-08-19T07:10:48.947Z,26.54
2022-08-19T07:15:51.293Z,26.74
2022-08-19T07:21:04.319Z,27.11
2022-08-19T07:26:20.298Z,27.37
2022-08-19T07:31:31.111Z,27.54
2022-08-19T07:36:33.332Z,27.70
2022-08-19T07:41:37.992Z,27.89
2022-08-19T07:46:42.178Z,28.09
2022-08-19T07:51:49.350Z,28.45
2022-08-19T07:56:52.508Z,28.64
2022-08-19T08:01:54.914Z,28.86
2022-08-19T08:07:15.514Z,29.20
2022-08-19T08:12:34.101Z,29.59
2022-08-19T08:17:49.678Z,29.96
2022-08-19T08:23:12.099Z,30.00
2022-08-19T08:28:17.656Z,30.04
2022-08-19T08:33:32.769Z,30.31
2022-08-19T08:38:41.706Z,30.21
2022-08-19T08:43:47.282Z,30.03
2022-08-19T08:49:15.184Z,30.16
2022-08-19T08:54:21.624Z,30.63
2022-08-19T08:59:33.392Z,30.76
2022-08-19T09:04:36.871Z,30.82
2022-08-19T09:09:42.904Z,30.78
2022-08-19T09:15:05.443Z,30.71
2022-08-19T09:20:11.273Z,30.90
2022-08-19T09:25:16.400Z,31.09
2022-08-19T09:30:24.886Z,31.25
2022-08-19T09:35:29.881Z,31.44
2022-08-19T09:40:35.465Z,31.37
2022-08-19T09:45:40.417Z,31.55
2022-08-19T09:50:51.874Z,31.48
2022-08-19T09:55:56.290Z,31.42
2022-08-19T10:00:59.655Z,31.64
2022-08-19T10:06:04.417Z,31.85
2022-08-19T10:11:27.259Z,32.06
2022-08-19T10:16:30.160Z,32.03
2022-08-19T10:21:33.974Z,32.15
2022-08-19T10:26:38.147Z,32.18
2022-08-19T10:31:59.788Z,32.05
2022-08-19T10:37:02.146Z,32.11
2022-08-19T10:42:08.037Z,32.29
2022-08-19T10:47:21.875Z,32.46
2022-08-19T10:52:38.981Z,32.46
2022-08-19T10:58:01.278Z,32.46
2022-08-19T11:03:03.060Z,32.66
2022-08-19T11:08:22.092Z,32.71
2022-08-19T11:13:25.664Z,32.62
2022-08-19T11:18:27.561Z,32.49
2022-08-19T11:23:29.187Z,32.39
2022-08-19T11:28:30.984Z,32.16
2022-08-19T11:33:33.765Z,32.06
2022-08-19T11:38:36.692Z,32.09
2022-08-19T11:43:38.780Z,32.08
2022-08-19T11:48:41.136Z,31.80
2022-08-19T11:53:42.797Z,31.98
2022-08-19T11:58:44.754Z,32.25
2022-08-19T12:03:48.465Z,32.38
2022-08-19T12:08:50.650Z,32.60
2022-08-19T12:13:53.169Z,32.74
2022-08-19T12:18:56.730Z,32.68
2022-08-19T12:24:00.036Z,32.62
2022-08-19T12:29:01.705Z,32.77
2022-08-19T12:34:03.500Z,32.84
2022-08-19T12:39:07.566Z,32.93
2022-08-19T12:44:13.419Z,32.91
2022-08-19T12:49:52.172Z,33.06
2022-08-19T12:54:38.503Z,33.03
2022-08-19T12:59:40.162Z,33.05
2022-08-19T13:04:42.142Z,32.77
2022-08-19T13:09:43.815Z,32.83
2022-08-19T13:14:51.399Z,32.88
2022-08-19T13:19:53.123Z,32.93
2022-08-19T13:24:54.881Z,32.96
2022-08-19T13:30:15.044Z,33.23
2022-08-19T13:35:18.067Z,33.25
2022-08-19T13:40:27.207Z,33.17
2022-08-19T13:45:30.865Z,32.83
2022-08-19T13:50:32.535Z,32.55
2022-08-19T13:55:34.704Z,32.58
2022-08-19T14:00:40.163Z,32.50
2022-08-19T14:05:41.815Z,32.49
2022-08-19T14:10:45.747Z,32.45
2022-08-19T14:15:48.448Z,32.44
2022-08-19T14:20:50.133Z,32.36
2022-08-19T14:25:51.804Z,32.19
2022-08-19T14:30:56.547Z,32.07
2022-08-19T14:35:59.602Z,31.97
2022-08-19T14:41:09.089Z,32.05
2022-08-19T14:46:11.541Z,32.05
2022-08-19T14:51:13.918Z,32.13
2022-08-19T14:56:19.259Z,32.04
2022-08-19T15:01:23.515Z,31.98
2022-08-19T15:06:26.302Z,31.99
2022-08-19T15:11:28.859Z,31.82
2022-08-19T15:16:30.978Z,31.75
2022-08-19T15:21:33.375Z,31.60
2022-08-19T15:26:34.990Z,31.42
2022-08-19T15:31:38.237Z,31.38
2022-08-19T15:36:40.524Z,31.17
2022-08-19T15:41:42.911Z,30.99
2022-08-19T15:46:48.750Z,30.83
2022-08-19T15:51:53.005Z,30.67
2022-08-19T15:57:13.307Z,30.58
2022-08-19T16:02:37.213Z,30.29
2022-08-19T16:07:39.212Z,30.14
2022-08-19T16:12:41.641Z,30.00
2022-08-19T16:17:43.551Z,30.13
2022-08-19T16:22:59.218Z,29.82
2022-08-19T16:28:06.538Z,29.63
2022-08-19T16:33:10.169Z,29.59
2022-08-19T16:38:11.954Z,29.70
2022-08-19T16:43:13.527Z,29.66
2022-08-19T16:48:15.114Z,29.70
2022-08-19T16:53:19.548Z,29.72
2022-08-19T16:58:22.459Z,29.83
2022-08-19T17:03:35.805Z,29.88
2022-08-19T17:08:37.729Z,29.80
2022-08-19T17:13:39.288Z,29.71
2022-08-19T17:18:40.920Z,29.58
2022-08-19T17:23:44.107Z,29.51
2022-08-19T17:28:51.352Z,29.44
2022-08-19T17:33:55.032Z,29.41
2022-08-19T17:39:00.560Z,29.46
2022-08-19T17:44:03.387Z,29.18
2022-08-19T17:49:05.045Z,29.10
2022-08-19T17:54:15.938Z,29.04
2022-08-19T17:59:17.547Z,29.02
2022-08-19T18:04:20.065Z,29.01
2022-08-19T18:09:38.715Z,28.94
2022-08-19T18:14:44.284Z,28.84
2022-08-19T18:19:47.642Z,28.79
2022-08-19T18:24:49.627Z,28.69
2022-08-19T18:29:51.287Z,28.67
2022-08-19T18:34:53.725Z,28.67
2022-08-19T18:40:14.089Z,28.66
2022-08-19T18:45:34.368Z,28.58
2022-08-19T18:50:37.534Z,28.50
2022-08-19T18:55:39.359Z,28.46
2022-08-19T19:00:41.977Z,28.37
2022-08-19T19:05:44.369Z,28.16
2022-08-19T19:10:45.999Z,28.02
2022-08-19T19:15:48.807Z,27.90
2022-08-19T19:20:50.415Z,27.95
2022-08-19T19:25:52.434Z,27.82
2022-08-19T19:30:58.536Z,27.73
2022-08-19T19:36:00.202Z,27.72
2022-08-19T19:41:02.152Z,27.71
2022-08-19T19:46:03.890Z,27.65
2022-08-19T19:51:09.247Z,27.43
2022-08-19T19:56:13.031Z,27.33
2022-08-19T20:01:21.699Z,26.90
2022-08-19T20:06:29.079Z,26.72
2022-08-19T20:11:47.166Z,26.40
2022-08-19T20:16:49.885Z,26.01
2022-08-19T20:21:52.206Z,25.84
2022-08-19T20:26:54.144Z,25.70
2022-08-19T20:31:57.791Z,25.67
2022-08-19T20:37:01.117Z,25.68
2022-08-19T20:42:02.714Z,25.85
2022-08-19T20:47:04.448Z,25.83
2022-08-19T20:52:06.592Z,25.90
2022-08-19T20:57:08.801Z,25.91
2022-08-19T21:02:11.213Z,25.83
2022-08-19T21:07:12.793Z,25.67
2022-08-19T21:12:14.665Z,25.53
2022-08-19T21:17:16.252Z,25.40
2022-08-19T21:22:17.823Z,25.33
2022-08-19T21:27:19.408Z,25.26
2022-08-19T21:32:21.526Z,25.22
2022-08-19T21:37:25.614Z,25.20
2022-08-19T21:42:27.720Z,25.22
2022-08-19T21:47:29.287Z,25.19
2022-08-19T21:52:30.969Z,25.20
2022-08-19T21:57:32.715Z,25.18
2022-08-19T22:02:34.589Z,25.16
2022-08-19T22:07:37.010Z,24.99
2022-08-19T22:12:47.387Z,24.83
2022-08-19T22:17:54.482Z,24.84
2022-08-19T22:22:59.465Z,24.95
2022-08-19T22:28:03.566Z,24.91
2022-08-19T22:33:09.138Z,24.85
2022-08-19T22:38:11.988Z,24.74
2022-08-19T22:43:18.140Z,24.70
2022-08-19T22:48:22.813Z,24.72
2022-08-19T22:53:24.398Z,24.75
2022-08-19T22:58:28.158Z,24.75
2022-08-19T23:03:30.242Z,24.58
2022-08-19T23:08:31.826Z,24.45
2022-08-19T23:13:33.518Z,24.37
2022-08-19T23:18:35.357Z,24.42
2022-08-19T23:23:39.342Z,24.35
2022-08-19T23:28:59.289Z,24.42
2022-08-19T23:34:01.031Z,24.39
2022-08-19T23:39:03.006Z,24.33
2022-08-19T23:44:05.638Z,24.29
2022-08-19T23:49:16.128Z,24.27
2022-08-19T23:54:17.796Z,24.26
2022-08-19T23:59:19.662Z,24.19
